»·PEaware :: AAL318 KLAS-KFAT

AAL318 :: KLAS-KFAT

FLIGHT INFORMATION

Flight Status: Arrived
Operator:
American Airlines
More flights by this operator :: More flights under this callsign
Pilot: Aundrey S. (17120)
Aircraft: EMBRAER EMB-145XR
(E45X)
More flights by this aircraft type
Origin: KLAS McCarran Intl
United States
Destination: KFAT Fresno Yosemite Intl
United States
More flights between these airports :: More routes between these airports
Route: SHEAD1 KENNO Q162 CABAB FRA
File this flight plan on PilotEdge
Remarks:
Altitude:
(Current/Filed)
28,000ft
Speed:
(Current/Filed)
450kts
Departed: 06-Jan-21 09:15 PM
Arrived: 06-Jan-21 10:08 PM
Distance/Time
Traveled:
224nm/0:53
Distance/Time
To Go:
Arrived

Flight Plot

Page will automatically refresh every two minutes.

Flight plan parsing failed; only flown route is shown


Map Options




Map Legend


Flown Route
Filed Route
Departure Airport
Arrival Airport
Navaid (VOR, NDB)
Fix

Horizontal Profiles

Position Reports

Time Latitude Longitude Heading Altitude Ground
Speed
06-Jan-21 20:25 36.079908 -115.140466 62 2075ft 0kts
06-Jan-21 20:26 36.079908 -115.140466 62 2075ft 0kts
06-Jan-21 20:27 36.079908 -115.140466 62 2075ft 0kts
06-Jan-21 20:28 36.079908 -115.140466 62 2075ft 0kts
06-Jan-21 20:29 36.079908 -115.140466 62 2075ft 0kts
06-Jan-21 20:30 36.079908 -115.140466 62 2075ft 0kts
06-Jan-21 20:31 36.079908 -115.140466 62 2075ft 0kts
06-Jan-21 20:33 36.079908 -115.140466 62 2075ft 0kts
06-Jan-21 20:34 36.079908 -115.140466 62 2075ft 0kts
06-Jan-21 20:35 36.079908 -115.140466 62 2075ft 0kts
06-Jan-21 20:36 36.079908 -115.140466 62 2075ft 0kts
06-Jan-21 20:37 36.079908 -115.140466 62 2075ft 0kts
06-Jan-21 20:38 36.079908 -115.140466 62 2075ft 0kts
06-Jan-21 20:39 36.079908 -115.140466 62 2075ft 0kts
06-Jan-21 20:40 36.079908 -115.140466 62 2075ft 0kts
06-Jan-21 20:41 36.079908 -115.140466 62 2075ft 0kts
06-Jan-21 20:42 36.079908 -115.140466 62 2075ft 0kts
06-Jan-21 20:43 36.079908 -115.140466 62 2075ft 0kts
06-Jan-21 20:44 36.079908 -115.140466 62 2075ft 0kts
06-Jan-21 20:45 36.079908 -115.140466 62 2075ft 0kts
06-Jan-21 20:46 36.079908 -115.140466 62 2075ft 0kts
06-Jan-21 20:47 36.079908 -115.140466 62 2075ft 0kts
06-Jan-21 20:47 36.079908 -115.140466 62 2075ft 0kts
06-Jan-21 20:49 36.079908 -115.140466 62 2075ft 0kts
06-Jan-21 20:50 36.079908 -115.140466 62 2075ft 0kts
06-Jan-21 20:51 36.079908 -115.140466 62 2075ft 0kts
06-Jan-21 20:51 36.079908 -115.140466 62 2075ft 0kts
06-Jan-21 20:52 36.079908 -115.140466 62 2075ft 0kts
06-Jan-21 20:53 36.079908 -115.140466 62 2075ft 0kts
06-Jan-21 20:54 36.079908 -115.140466 62 2075ft 0kts
06-Jan-21 20:55 36.079908 -115.140466 62 2075ft 0kts
06-Jan-21 20:56 36.079908 -115.140466 62 2075ft 0kts
06-Jan-21 20:57 36.079908 -115.140466 62 2075ft 0kts
06-Jan-21 20:58 36.079908 -115.140466 62 2075ft 0kts
06-Jan-21 20:59 36.079889 -115.140728 91 2076ft 2kts
06-Jan-21 21:00 36.080227 -115.141270 166 2077ft 2kts
06-Jan-21 21:01 36.080368 -115.141288 181 2077ft 0kts
06-Jan-21 21:02 36.080368 -115.141288 181 2077ft 0kts
06-Jan-21 21:03 36.080368 -115.141288 181 2077ft 0kts
06-Jan-21 21:04 36.080368 -115.141288 181 2077ft 0kts
06-Jan-21 21:05 36.080368 -115.141288 181 2077ft 0kts
06-Jan-21 21:06 36.080368 -115.141288 181 2077ft 0kts
06-Jan-21 21:07 36.080368 -115.141288 181 2077ft 0kts
06-Jan-21 21:08 36.080368 -115.141288 181 2077ft 0kts
06-Jan-21 21:09 36.079922 -115.141556 188 2079ft 7kts
06-Jan-21 21:10 36.078264 -115.137778 90 2071ft 18kts
06-Jan-21 21:11 36.078275 -115.130474 89 2049ft 18kts
06-Jan-21 21:12 36.078278 -115.124267 90 2036ft 20kts
06-Jan-21 21:13 36.076855 -115.121274 179 2036ft 10kts
06-Jan-21 21:14 36.076438 -115.138982 270 2251ft 175kts
06-Jan-21 21:15 36.076329 -115.220021 270 4688ft 247kts
06-Jan-21 21:16 36.031105 -115.273529 201 5994ft 267kts
06-Jan-21 21:17 35.964802 -115.310048 224 8177ft 266kts
06-Jan-21 21:18 35.911121 -115.374373 226 10192ft 272kts
06-Jan-21 21:19 35.886807 -115.462509 272 13298ft 308kts
06-Jan-21 21:20 35.888922 -115.569932 272 18258ft 324kts
06-Jan-21 21:21 35.891237 -115.693791 271 19010ft 387kts
06-Jan-21 21:22 35.893407 -115.823005 271 19939ft 359kts
06-Jan-21 21:23 35.895536 -115.944872 274 21722ft 356kts
06-Jan-21 21:24 35.956048 -116.040178 313 23523ft 363kts
06-Jan-21 21:25 36.030351 -116.125840 313 25330ft 368kts
06-Jan-21 21:26 36.105639 -116.212754 313 27121ft 373kts
06-Jan-21 21:27 36.182563 -116.301767 313 28220ft 398kts
06-Jan-21 21:28 36.265347 -116.397857 313 28220ft 413kts
06-Jan-21 21:29 36.349937 -116.496138 315 28215ft 421kts
06-Jan-21 21:30 36.442170 -116.587004 316 28217ft 426kts
06-Jan-21 21:31 36.525778 -116.689805 303 28222ft 422kts
06-Jan-21 21:32 36.614697 -116.786217 324 28223ft 434kts
06-Jan-21 21:33 36.717964 -116.864829 324 28217ft 437kts
06-Jan-21 21:34 36.821924 -116.944042 324 28220ft 438kts
06-Jan-21 21:35 36.925674 -117.023361 324 28253ft 438kts
06-Jan-21 21:36 37.029526 -117.102995 324 28260ft 439kts
06-Jan-21 21:37 37.133691 -117.183133 324 28261ft 439kts
06-Jan-21 21:38 37.237565 -117.263330 324 28263ft 439kts
06-Jan-21 21:39 37.303630 -117.378215 277 28272ft 419kts
06-Jan-21 21:40 37.317766 -117.523713 276 28255ft 420kts
06-Jan-21 21:41 37.330905 -117.669299 275 28255ft 419kts
06-Jan-21 21:42 37.343880 -117.814994 275 28253ft 420kts
06-Jan-21 21:43 37.344838 -117.961127 264 28264ft 419kts
06-Jan-21 21:44 37.332265 -118.106201 264 28210ft 415kts
06-Jan-21 21:45 37.319957 -118.245115 265 26181ft 388kts
06-Jan-21 21:46 37.308153 -118.376835 265 24159ft 372kts
06-Jan-21 21:47 37.296608 -118.504022 264 22139ft 362kts
06-Jan-21 21:48 37.285188 -118.628304 264 20111ft 355kts
06-Jan-21 21:49 37.270682 -118.749767 258 18098ft 350kts
06-Jan-21 21:50 37.248310 -118.866648 257 17023ft 330kts
06-Jan-21 21:51 37.227146 -118.975424 258 17041ft 314kts
06-Jan-21 21:52 37.206176 -119.082741 258 15751ft 323kts
06-Jan-21 21:53 37.184313 -119.193959 258 13957ft 332kts
06-Jan-21 21:54 37.161872 -119.307148 256 12155ft 337kts
06-Jan-21 21:55 37.083045 -119.362262 193 10329ft 351kts
06-Jan-21 21:56 36.993843 -119.383976 193 10028ft 301kts
06-Jan-21 21:57 36.914874 -119.403609 193 8826ft 286kts
06-Jan-21 21:58 36.839536 -119.424157 193 6867ft 254kts
06-Jan-21 21:59 36.773108 -119.442740 193 5312ft 242kts
06-Jan-21 22:00 36.710572 -119.460480 193 3617ft 222kts
06-Jan-21 22:01 36.677449 -119.497407 278 3441ft 166kts
06-Jan-21 22:02 36.683224 -119.553659 293 3218ft 169kts
06-Jan-21 22:03 36.710750 -119.601932 307 2413ft 159kts
06-Jan-21 22:04 36.734654 -119.643122 306 1247ft 137kts
06-Jan-21 22:05 36.755154 -119.679597 307 686ft 120kts
06-Jan-21 22:06 36.775058 -119.714448 306 335ft 109kts
06-Jan-21 22:07 36.783194 -119.728933 272 334ft 17kts
06-Jan-21 22:08 36.782499 -119.731337 214 333ft 14kts
06-Jan-21 22:09 36.778996 -119.727807 124 332ft 27kts
06-Jan-21 22:10 36.774522 -119.720196 150 331ft 19kts
06-Jan-21 22:11 36.771590 -119.719412 125 328ft 1kts

Navigation Log

Ident Type
Flight plan parsing failed, navigation log unavailable